Teller, Alaska
Current Conditions -  °F | °C
As of 2:58 PM on Sunday 23 Nov 2014 (Local Time) from PATE Reporting Station
Clear Clear  
Wind Chill: -9°   Ceiling: Unl
Heat Index:   Visibility: 10mi
Dew Point: -1°   Wind: 10mph
Humidity: 73%   Direction: 70°ENE
Pressure: 29.68"   Gusts: NA
Location:  65.26°N, 166.36°W
Report Text: PATE 232358Z AUTO 07009KT 10SM CLR M14/M18 A2968 RMK AO2 SLP064 T11441183 11133 21144 51008 FZRANO
Loading
Personal Weather Stations






























Interactive Weather Map New forecast layout! Learn more

10-Day Weather Forecast

Advertisements
Track Severe Weather on mobile